Time,TemperatureF,DewpointF,PressureIn,WindDirection,WindDirectionDegrees,WindSpeedMPH,WindSpeedGustMPH,Humidity,HourlyPrecipIn,Conditions,Clouds,dailyrainin,SoftwareType,DateUTC
2013-04-21 00:05:00,51.1,20.7,29.89,West,270,5.1,-999.0,30,-99.99,,,0.00,Acu-Link.com,2013-04-21 06:05:00,
2013-04-21 00:20:00,50.9,20.6,29.90,NNW,337,5.8,-999.0,30,-99.99,,,0.00,Acu-Link.com,2013-04-21 06:20:00,
2013-04-21 00:36:00,51.1,21.5,29.90,WNW,292,3.1,-999.0,31,-99.99,,,0.00,Acu-Link.com,2013-04-21 06:36:00,
2013-04-21 00:51:00,51.3,21.7,29.90,NW,315,3.8,-999.0,31,-99.99,,,0.00,Acu-Link.com,2013-04-21 06:51:00,
2013-04-21 01:06:00,50.5,21.0,29.92,North,0,1.1,-999.0,31,-99.99,,,0.00,Acu-Link.com,2013-04-21 07:06:00,
2013-04-21 01:21:00,49.5,22.3,29.91,South,180,1.6,-999.0,34,-99.99,,,0.00,Acu-Link.com,2013-04-21 07:21:00,
2013-04-21 01:36:00,47.8,20.8,29.91,SW,225,0.0,-999.0,34,-99.99,,,0.00,Acu-Link.com,2013-04-21 07:36:00,
2013-04-21 01:52:00,48.4,21.3,29.91,WSW,247,3.8,-999.0,34,-99.99,,,0.00,Acu-Link.com,2013-04-21 07:52:00,
2013-04-21 02:07:00,48.7,20.9,29.91,West,270,6.7,-999.0,33,-99.99,,,0.00,Acu-Link.com,2013-04-21 08:07:00,
2013-04-21 02:22:00,47.8,20.1,29.91,West,270,6.3,-999.0,33,-99.99,,,0.00,Acu-Link.com,2013-04-21 08:22:00,
2013-04-21 02:37:00,48.0,20.3,29.91,West,270,4.3,-999.0,33,-99.99,,,0.00,Acu-Link.com,2013-04-21 08:37:00,
2013-04-21 02:52:00,48.0,21.0,29.91,West,270,3.1,-999.0,34,-99.99,,,0.00,Acu-Link.com,2013-04-21 08:52:00,
2013-04-21 03:08:00,47.8,24.7,29.91,East,90,0.0,-999.0,40,-99.99,,,0.00,Acu-Link.com,2013-04-21 09:08:00,
2013-04-21 03:23:00,45.9,21.1,29.91,SE,135,1.1,-999.0,37,-99.99,,,0.00,Acu-Link.com,2013-04-21 09:23:00,
2013-04-21 03:38:00,44.4,21.0,29.92,West,270,0.0,-999.0,39,-99.99,,,0.00,Acu-Link.com,2013-04-21 09:38:00,
2013-04-21 03:53:00,44.1,21.3,29.92,East,90,2.2,-999.0,40,-99.99,,,0.00,Acu-Link.com,2013-04-21 09:53:00,
2013-04-21 04:09:00,43.5,21.4,29.93,SSW,202,0.0,-999.0,41,-99.99,,,0.00,Acu-Link.com,2013-04-21 10:09:00,
2013-04-21 04:24:00,42.3,20.8,29.93,East,90,0.0,-999.0,42,-99.99,,,0.00,Acu-Link.com,2013-04-21 10:24:00,
2013-04-21 04:39:00,41.4,21.1,29.93,East,90,0.0,-999.0,44,-99.99,,,0.00,Acu-Link.com,2013-04-21 10:39:00,
2013-04-21 04:54:00,40.6,21.5,29.93,NW,315,0.0,-999.0,46,-99.99,,,0.00,Acu-Link.com,2013-04-21 10:54:00,
2013-04-21 05:09:00,41.5,21.3,29.94,South,180,0.0,-999.0,44,-99.99,,,0.00,Acu-Link.com,2013-04-21 11:09:00,
2013-04-21 05:25:00,39.6,21.0,29.94,WNW,292,0.0,-999.0,47,-99.99,,,0.00,Acu-Link.com,2013-04-21 11:25:00,
2013-04-21 05:40:00,38.7,21.2,29.95,ENE,67,0.0,-999.0,49,-99.99,,,0.00,Acu-Link.com,2013-04-21 11:40:00,
2013-04-21 05:55:00,38.5,21.5,29.95,NNE,22,0.0,-999.0,50,-99.99,,,0.00,Acu-Link.com,2013-04-21 11:55:00,
2013-04-21 06:10:00,38.7,21.6,29.96,ENE,67,2.2,-999.0,50,-99.99,,,0.00,Acu-Link.com,2013-04-21 12:10:00,
2013-04-21 06:25:00,39.7,21.7,29.96,ESE,112,1.6,-999.0,48,-99.99,,,0.00,Acu-Link.com,2013-04-21 12:25:00,
2013-04-21 06:41:00,39.4,21.3,29.97,ESE,112,1.1,-999.0,48,-99.99,,,0.00,Acu-Link.com,2013-04-21 12:41:00,
2013-04-21 06:56:00,40.8,21.7,29.98,NE,45,2.2,-999.0,46,-99.99,,,0.00,Acu-Link.com,2013-04-21 12:56:00,
2013-04-21 07:11:00,45.5,22.0,29.98,ENE,67,1.1,-999.0,39,-99.99,,,0.00,Acu-Link.com,2013-04-21 13:11:00,
2013-04-21 07:26:00,47.3,22.4,29.98,NE,45,1.6,-999.0,37,-99.99,,,0.00,Acu-Link.com,2013-04-21 13:26:00,
2013-04-21 07:41:00,48.9,22.5,29.99,North,0,1.1,-999.0,35,-99.99,,,0.00,Acu-Link.com,2013-04-21 13:41:00,
2013-04-21 07:57:00,54.5,24.5,29.99,NE,45,0.0,-999.0,31,-99.99,,,0.00,Acu-Link.com,2013-04-21 13:57:00,
2013-04-21 08:12:00,57.4,24.6,29.99,NE,45,0.0,-999.0,28,-99.99,,,0.00,Acu-Link.com,2013-04-21 14:12:00,
2013-04-21 08:27:00,58.8,24.0,29.99,East,90,3.8,-999.0,26,-99.99,,,0.00,Acu-Link.com,2013-04-21 14:27:00,
2013-04-21 08:42:00,57.9,24.1,29.99,ESE,112,4.3,-999.0,27,-99.99,,,0.00,Acu-Link.com,2013-04-21 14:42:00,
2013-04-21 08:58:00,59.4,24.5,30.00,ENE,67,2.7,-999.0,26,-99.99,,,0.00,Acu-Link.com,2013-04-21 14:58:00,
2013-04-21 09:13:00,55.4,24.5,30.01,SSE,157,3.8,-999.0,30,-99.99,,,0.00,Acu-Link.com,2013-04-21 15:13:00,
2013-04-21 09:28:00,56.8,23.2,30.01,ESE,112,2.2,-999.0,27,-99.99,,,0.00,Acu-Link.com,2013-04-21 15:28:00,
2013-04-21 09:43:00,58.6,23.9,30.01,ESE,112,4.7,-999.0,26,-99.99,,,0.00,Acu-Link.com,2013-04-21 15:43:00,
2013-04-21 09:58:00,59.5,23.7,30.01,SE,135,3.1,-999.0,25,-99.99,,,0.00,Acu-Link.com,2013-04-21 15:58:00,
2013-04-21 10:14:00,61.7,24.5,30.01,ESE,112,4.3,-999.0,24,-99.99,,,0.00,Acu-Link.com,2013-04-21 16:14:00,
2013-04-21 10:29:00,62.6,24.3,30.00,SW,225,1.6,-999.0,23,-99.99,,,0.00,Acu-Link.com,2013-04-21 16:29:00,
2013-04-21 10:44:00,62.8,23.4,30.00,WSW,247,4.3,-999.0,22,-99.99,,,0.00,Acu-Link.com,2013-04-21 16:44:00,
2013-04-21 10:59:00,65.1,24.2,30.00,West,270,4.3,-999.0,21,-99.99,,,0.00,Acu-Link.com,2013-04-21 16:59:00,
2013-04-21 11:14:00,65.8,23.7,29.99,WNW,292,5.1,-999.0,20,-99.99,,,0.00,Acu-Link.com,2013-04-21 17:14:00,
2013-04-21 11:30:00,65.8,23.7,29.99,West,270,5.8,-999.0,20,-99.99,,,0.00,Acu-Link.com,2013-04-21 17:30:00,
2013-04-21 11:45:00,68.0,24.2,29.98,NNW,337,4.7,-999.0,19,-99.99,,,0.00,Acu-Link.com,2013-04-21 17:45:00,
2013-04-21 12:00:00,68.2,23.1,29.98,West,270,6.7,-999.0,18,-99.99,,,0.00,Acu-Link.com,2013-04-21 18:00:00,
2013-04-21 12:15:00,66.6,23.0,29.97,WSW,247,1.6,-999.0,19,-99.99,,,0.00,Acu-Link.com,2013-04-21 18:15:00,
2013-04-21 12:30:00,68.2,21.7,29.96,NE,45,3.1,-999.0,17,-99.99,,,0.00,Acu-Link.com,2013-04-21 18:30:00,
2013-04-21 12:46:00,70.0,21.7,29.95,West,270,4.7,-999.0,16,-99.99,,,0.00,Acu-Link.com,2013-04-21 18:46:00,
2013-04-21 13:01:00,71.2,22.7,29.94,West,270,10.3,-999.0,16,-99.99,,,0.00,Acu-Link.com,2013-04-21 19:01:00,
2013-04-21 13:16:00,72.5,22.2,29.93,WNW,292,7.8,-999.0,15,-99.99,,,0.00,Acu-Link.com,2013-04-21 19:16:00,
2013-04-21 13:31:00,72.7,19.0,29.92,West,270,5.1,-999.0,13,-99.99,,,0.00,Acu-Link.com,2013-04-21 19:31:00,
2013-04-21 13:47:00,71.2,17.9,29.91,North,0,2.7,-999.0,13,-99.99,,,0.00,Acu-Link.com,2013-04-21 19:47:00,
2013-04-21 14:02:00,73.4,19.6,29.91,SSW,202,4.7,-999.0,13,-99.99,,,0.00,Acu-Link.com,2013-04-21 20:02:00,
2013-04-21 14:17:00,72.9,19.2,29.90,SSW,202,3.1,-999.0,13,-99.99,,,0.00,Acu-Link.com,2013-04-21 20:17:00,
2013-04-21 14:32:00,77.0,16.3,29.90,SW,225,9.4,-999.0,10,-99.99,,,0.00,Acu-Link.com,2013-04-21 20:32:00,
2013-04-21 14:47:00,75.9,17.6,29.88,West,270,6.3,-999.0,11,-99.99,,,0.00,Acu-Link.com,2013-04-21 20:47:00,
2013-04-21 15:03:00,75.6,17.4,29.88,West,270,5.8,-999.0,11,-99.99,,,0.00,Acu-Link.com,2013-04-21 21:03:00,
2013-04-21 15:18:00,76.5,15.9,29.87,WSW,247,5.1,-999.0,10,-99.99,,,0.00,Acu-Link.com,2013-04-21 21:18:00,
2013-04-21 15:33:00,75.0,14.8,29.87,NE,45,2.7,-999.0,10,-99.99,,,0.00,Acu-Link.com,2013-04-21 21:33:00,
2013-04-21 15:48:00,77.0,16.3,29.85,ENE,67,2.7,-999.0,10,-99.99,,,0.00,Acu-Link.com,2013-04-21 21:48:00,
2013-04-21 16:03:00,77.7,14.4,29.85,SW,225,4.3,-999.0,9,-99.99,,,0.00,Acu-Link.com,2013-04-21 22:03:00,
2013-04-21 16:19:00,78.1,12.0,29.83,WNW,292,6.3,-999.0,8,-99.99,,,0.00,Acu-Link.com,2013-04-21 22:19:00,
2013-04-21 16:34:00,77.2,14.0,29.83,NNW,337,2.7,-999.0,9,-99.99,,,0.00,Acu-Link.com,2013-04-21 22:34:00,
2013-04-21 16:49:00,78.3,14.8,29.82,SW,225,4.3,-999.0,9,-99.99,,,0.00,Acu-Link.com,2013-04-21 22:49:00,
2013-04-21 17:04:00,78.4,14.9,29.82,NE,45,6.3,-999.0,9,-99.99,,,0.00,Acu-Link.com,2013-04-21 23:04:00,
2013-04-21 17:20:00,78.4,14.9,29.81,WNW,292,6.7,-999.0,9,-99.99,,,0.00,Acu-Link.com,2013-04-21 23:20:00,
2013-04-21 17:35:00,79.3,12.9,29.82,NW,315,7.8,-999.0,8,-99.99,,,0.00,Acu-Link.com,2013-04-21 23:35:00,
2013-04-21 17:50:00,79.7,13.2,29.81,West,270,3.8,-999.0,8,-99.99,,,0.00,Acu-Link.com,2013-04-21 23:50:00,
2013-04-21 18:05:00,79.5,10.1,29.81,SW,225,7.8,-999.0,7,-99.99,,,0.00,Acu-Link.com,2013-04-22 00:05:00,
2013-04-21 18:20:00,78.1,9.0,29.81,NNW,337,6.3,-999.0,7,-99.99,,,0.00,Acu-Link.com,2013-04-22 00:20:00,
2013-04-21 18:36:00,79.0,12.7,29.81,NE,45,2.7,-999.0,8,-99.99,,,0.00,Acu-Link.com,2013-04-22 00:36:00,
2013-04-21 18:51:00,77.5,11.6,29.81,NW,315,5.8,-999.0,8,-99.99,,,0.00,Acu-Link.com,2013-04-22 00:51:00,
2013-04-21 19:06:00,76.1,13.2,29.82,NNE,22,8.3,-999.0,9,-99.99,,,0.00,Acu-Link.com,2013-04-22 01:06:00,
2013-04-21 19:21:00,73.4,13.5,29.82,WNW,292,8.3,-999.0,10,-99.99,,,0.00,Acu-Link.com,2013-04-22 01:21:00,
2013-04-21 19:36:00,71.2,14.0,29.82,NW,315,3.8,-999.0,11,-99.99,,,0.00,Acu-Link.com,2013-04-22 01:36:00,
2013-04-21 19:52:00,70.0,15.1,29.82,West,270,6.3,-999.0,12,-99.99,,,0.00,Acu-Link.com,2013-04-22 01:52:00,
2013-04-21 20:07:00,69.1,14.4,29.83,NNW,337,5.1,-999.0,12,-99.99,,,0.00,Acu-Link.com,2013-04-22 02:07:00,
2013-04-21 20:22:00,68.0,15.3,29.84,NNW,337,3.1,-999.0,13,-99.99,,,0.00,Acu-Link.com,2013-04-22 02:22:00,
2013-04-21 20:37:00,67.5,14.9,29.84,NNW,337,5.1,-999.0,13,-99.99,,,0.00,Acu-Link.com,2013-04-22 02:37:00,
2013-04-21 20:52:00,66.2,15.6,29.85,WNW,292,4.7,-999.0,14,-99.99,,,0.00,Acu-Link.com,2013-04-22 02:52:00,
2013-04-21 21:08:00,64.2,15.6,29.86,WNW,292,2.7,-999.0,15,-99.99,,,0.00,Acu-Link.com,2013-04-22 03:08:00,
2013-04-21 21:23:00,63.0,14.6,29.86,WNW,292,1.6,-999.0,15,-99.99,,,0.00,Acu-Link.com,2013-04-22 03:23:00,
2013-04-21 21:38:00,61.9,15.2,29.87,WNW,292,2.2,-999.0,16,-99.99,,,0.00,Acu-Link.com,2013-04-22 03:38:00,
2013-04-21 21:53:00,60.8,14.3,29.88,West,270,2.7,-999.0,16,-99.99,,,0.00,Acu-Link.com,2013-04-22 03:53:00,
2013-04-21 22:09:00,59.9,15.0,29.88,WSW,247,2.7,-999.0,17,-99.99,,,0.00,Acu-Link.com,2013-04-22 04:09:00,
2013-04-21 22:24:00,59.0,14.3,29.89,WSW,247,0.0,-999.0,17,-99.99,,,0.00,Acu-Link.com,2013-04-22 04:24:00,
2013-04-21 22:39:00,57.0,15.2,29.89,WNW,292,1.1,-999.0,19,-99.99,,,0.00,Acu-Link.com,2013-04-22 04:39:00,
2013-04-21 22:54:00,56.8,15.0,29.88,West,270,3.1,-999.0,19,-99.99,,,0.00,Acu-Link.com,2013-04-22 04:54:00,
2013-04-21 23:09:00,56.1,15.6,29.88,ENE,67,0.0,-999.0,20,-99.99,,,0.00,Acu-Link.com,2013-04-22 05:09:00,
2013-04-21 23:25:00,55.2,16.0,29.89,NNW,337,1.6,-999.0,21,-99.99,,,0.00,Acu-Link.com,2013-04-22 05:25:00,
2013-04-21 23:40:00,55.6,16.3,29.87,WNW,292,1.6,-999.0,21,-99.99,,,0.00,Acu-Link.com,2013-04-22 05:40:00,
2013-04-21 23:55:00,56.5,15.9,29.87,WNW,292,4.7,-999.0,20,-99.99,,,0.00,Acu-Link.com,2013-04-22 05:55:00,